createdAt,value
2018-08-03T00:00:10.689Z,99016.41
2018-08-03T00:02:39.962Z,99018.31
2018-08-03T00:05:09.014Z,99016.19
2018-08-03T00:07:38.201Z,99018.54
2018-08-03T00:10:08.274Z,99020.15
2018-08-03T00:12:37.469Z,99008.47
2018-08-03T00:15:07.554Z,99021.45
2018-08-03T00:17:36.786Z,99019.59
2018-08-03T00:20:06.773Z,99023.28
2018-08-03T00:22:36.126Z,99028.31
2018-08-03T00:25:08.600Z,99033.19
2018-08-03T00:27:37.768Z,99037.59
2018-08-03T00:30:07.549Z,99039.67
2018-08-03T00:32:36.649Z,99038.20
2018-08-03T00:35:05.708Z,99037.22
2018-08-03T00:37:34.809Z,99033.31
2018-08-03T00:40:03.893Z,99036.34
2018-08-03T00:42:33.045Z,99034.09
2018-08-03T00:45:02.062Z,99034.36
2018-08-03T00:47:31.087Z,99037.48
2018-08-03T00:50:00.171Z,99023.27
2018-08-03T00:52:29.267Z,99027.23
2018-08-03T00:54:58.542Z,99025.06
2018-08-03T00:57:27.552Z,99022.50
2018-08-03T00:59:56.580Z,99023.50
2018-08-03T01:02:25.693Z,99017.98
2018-08-03T01:04:54.720Z,99018.36
2018-08-03T01:07:23.845Z,99021.30
2018-08-03T01:09:53.120Z,99017.02
2018-08-03T01:12:22.762Z,99016.30
2018-08-03T01:14:51.817Z,99021.41
2018-08-03T01:17:20.841Z,99011.38
2018-08-03T01:19:49.872Z,99004.03
2018-08-03T01:22:18.966Z,99008.87
2018-08-03T01:24:47.994Z,99013.68
2018-08-03T01:27:17.003Z,99012.47
2018-08-03T01:29:46.045Z,99007.10
2018-08-03T01:32:15.056Z,99004.42
2018-08-03T01:34:44.119Z,99000.53
2018-08-03T01:37:13.285Z,98995.69
2018-08-03T01:39:42.449Z,98994.42
2018-08-03T01:42:11.573Z,98996.16
2018-08-03T01:44:40.556Z,98992.66
2018-08-03T01:47:09.688Z,98999.02
2018-08-03T01:49:38.784Z,98998.02
2018-08-03T01:52:07.844Z,98998.23
2018-08-03T01:54:36.900Z,98996.88
2018-08-03T01:57:05.993Z,98993.73
2018-08-03T01:59:34.995Z,98995.59
2018-08-03T02:02:04.181Z,98998.49
2018-08-03T02:04:33.191Z,98995.94
2018-08-03T02:07:02.257Z,98986.20
2018-08-03T02:09:31.260Z,98993.25
2018-08-03T02:12:00.327Z,98989.05
2018-08-03T02:14:29.406Z,98993.58
2018-08-03T02:16:58.461Z,98988.98
2018-08-03T02:19:27.586Z,98989.26
2018-08-03T02:21:56.748Z,98991.42
2018-08-03T02:24:32.157Z,98989.31
2018-08-03T02:27:01.181Z,98997.31
2018-08-03T02:29:30.262Z,99000.33
2018-08-03T02:31:59.275Z,98994.85
2018-08-03T02:34:29.218Z,98990.22
2018-08-03T02:36:58.368Z,98992.64
2018-08-03T02:39:27.365Z,98991.47
2018-08-03T02:41:56.417Z,98997.27
2018-08-03T02:44:25.497Z,99002.66
2018-08-03T02:46:54.640Z,99000.14
2018-08-03T02:49:23.679Z,99002.66
2018-08-03T02:51:52.757Z,99014.70
2018-08-03T02:54:21.745Z,99008.06
2018-08-03T02:56:50.767Z,99009.37
2018-08-03T02:59:20.448Z,99004.65
2018-08-03T03:01:49.571Z,99005.69
2018-08-03T03:04:18.573Z,99006.16
2018-08-03T03:06:47.680Z,99012.20
2018-08-03T03:09:16.693Z,99015.86
2018-08-03T03:11:45.706Z,99013.53
2018-08-03T03:14:21.417Z,99011.55
2018-08-03T03:16:50.518Z,99004.44
2018-08-03T03:19:19.540Z,99010.09
2018-08-03T03:21:48.608Z,99008.61
2018-08-03T03:24:17.605Z,99018.18
2018-08-03T03:26:46.689Z,99008.56
2018-08-03T03:29:15.746Z,99014.41
2018-08-03T03:31:44.789Z,99017.25
2018-08-03T03:34:13.840Z,99013.56
2018-08-03T03:36:42.881Z,99016.65
2018-08-03T03:39:13.817Z,99016.70
2018-08-03T03:41:43.149Z,99016.29
2018-08-03T03:44:12.273Z,99020.00
2018-08-03T03:46:41.301Z,99014.08
2018-08-03T03:49:10.314Z,99012.89
2018-08-03T03:51:39.363Z,99009.13
2018-08-03T03:54:08.454Z,99011.80
2018-08-03T03:56:37.489Z,99015.25
2018-08-03T03:59:06.518Z,99014.23
2018-08-03T04:01:35.585Z,99014.09
2018-08-03T04:04:04.732Z,99010.41
2018-08-03T04:06:33.826Z,99013.14
2018-08-03T04:09:02.904Z,99014.54
2018-08-03T04:11:31.896Z,99019.44
2018-08-03T04:14:00.927Z,99014.23
2018-08-03T04:16:29.957Z,99019.74
2018-08-03T04:18:58.983Z,99020.20
2018-08-03T04:21:27.989Z,99014.17
2018-08-03T04:23:57.107Z,99015.42
2018-08-03T04:26:26.105Z,99017.16
2018-08-03T04:28:55.130Z,99012.38
2018-08-03T04:31:24.165Z,99016.08
2018-08-03T04:33:59.465Z,99019.69
2018-08-03T04:36:28.459Z,99017.52
2018-08-03T04:38:57.593Z,99024.11
2018-08-03T04:41:26.523Z,99025.09
2018-08-03T04:43:55.556Z,99022.03
2018-08-03T04:46:24.648Z,99026.02
2018-08-03T04:48:54.158Z,99028.77
2018-08-03T04:51:23.149Z,99028.67
2018-08-03T04:53:52.285Z,99031.95
2018-08-03T04:56:21.342Z,99027.05
2018-08-03T04:58:50.560Z,99027.63
2018-08-03T05:01:19.546Z,99028.56
2018-08-03T05:03:48.591Z,99029.38
2018-08-03T05:06:17.722Z,99030.34
2018-08-03T05:08:46.845Z,99023.66
2018-08-03T05:11:15.849Z,99027.84
2018-08-03T05:13:44.945Z,99030.25
2018-08-03T05:16:14.033Z,99032.55
2018-08-03T05:18:43.137Z,99040.51
2018-08-03T05:21:12.185Z,99036.03
2018-08-03T05:23:41.224Z,99036.97
2018-08-03T05:26:10.387Z,99031.91
2018-08-03T05:28:39.404Z,99042.94
2018-08-03T05:31:09.166Z,99039.38
2018-08-03T05:33:38.316Z,99033.61
2018-08-03T05:36:07.604Z,99037.75
2018-08-03T05:38:36.489Z,99040.72
2018-08-03T05:41:05.558Z,99039.66
2018-08-03T05:43:34.698Z,99040.19
2018-08-03T05:46:03.779Z,99036.22
2018-08-03T05:48:33.125Z,99035.70
2018-08-03T05:51:02.142Z,99025.81
2018-08-03T05:53:31.457Z,99031.27
2018-08-03T05:56:00.642Z,99035.08
2018-08-03T05:58:29.664Z,99036.56
2018-08-03T06:00:58.802Z,99031.17
2018-08-03T06:03:27.831Z,99035.41
2018-08-03T06:05:57.200Z,99033.33
2018-08-03T06:08:26.400Z,99036.97
2018-08-03T06:10:55.399Z,99039.66
2018-08-03T06:13:24.554Z,99041.59
2018-08-03T06:15:53.605Z,99045.19
2018-08-03T06:18:22.661Z,99046.19
2018-08-03T06:20:51.691Z,99044.69
2018-08-03T06:23:20.737Z,99045.52
2018-08-03T06:25:49.785Z,99042.72
2018-08-03T06:28:18.914Z,99041.91
2018-08-03T06:30:47.905Z,99038.55
2018-08-03T06:33:16.984Z,99036.16
2018-08-03T06:35:46.229Z,99038.77
2018-08-03T06:38:15.326Z,99037.18
2018-08-03T06:40:44.345Z,99038.54
2018-08-03T06:43:13.382Z,99038.53
2018-08-03T06:45:42.518Z,99035.03
2018-08-03T06:48:11.549Z,99039.36
2018-08-03T06:50:40.633Z,99036.27
2018-08-03T06:53:09.757Z,99033.45
2018-08-03T06:55:38.812Z,99036.73
2018-08-03T06:58:08.027Z,99041.78
2018-08-03T07:00:37.105Z,99035.84
2018-08-03T07:03:06.258Z,99032.98
2018-08-03T07:05:35.286Z,99035.77
2018-08-03T07:08:04.322Z,99034.71
2018-08-03T07:10:33.406Z,99037.98
2018-08-03T07:13:02.513Z,99029.88
2018-08-03T07:15:31.586Z,99036.70
2018-08-03T07:18:00.693Z,99037.52
2018-08-03T07:20:30.005Z,99039.58
2018-08-03T07:22:58.988Z,99039.58
2018-08-03T07:25:28.166Z,99030.14
2018-08-03T07:27:57.281Z,99037.70
2018-08-03T07:30:26.411Z,99038.34
2018-08-03T07:32:55.477Z,99035.11
2018-08-03T07:35:24.450Z,99038.91
2018-08-03T07:37:53.560Z,99034.89
2018-08-03T07:40:22.630Z,99032.78
2018-08-03T07:42:51.786Z,99034.66
2018-08-03T07:45:20.830Z,99037.59
2018-08-03T07:47:49.866Z,99042.18
2018-08-03T07:50:18.893Z,99046.23
2018-08-03T07:52:48.037Z,99041.64
2018-08-03T07:55:17.141Z,99037.90
2018-08-03T07:57:46.149Z,99036.27
2018-08-03T08:00:15.137Z,99036.58
2018-08-03T08:02:44.197Z,99043.40
2018-08-03T08:05:13.169Z,99042.86
2018-08-03T08:07:42.173Z,99038.55
2018-08-03T08:10:11.256Z,99036.91
2018-08-03T08:12:40.409Z,99040.72
2018-08-03T08:15:09.453Z,99040.19
2018-08-03T08:17:38.707Z,99042.33
2018-08-03T08:20:07.732Z,99038.81
2018-08-03T08:22:36.985Z,98863.42
2018-08-03T08:25:06.076Z,99025.53
2018-08-03T08:27:35.154Z,99031.98
2018-08-03T08:30:04.360Z,99027.89
2018-08-03T08:32:33.397Z,99018.63
2018-08-03T08:35:02.425Z,99023.78
2018-08-03T08:37:31.636Z,99017.12
2018-08-03T08:40:00.687Z,99019.31
2018-08-03T08:42:29.832Z,99019.44
2018-08-03T08:44:58.833Z,99011.86
2018-08-03T08:47:28.721Z,99006.01
2018-08-03T08:49:57.822Z,99010.78
2018-08-03T08:52:26.817Z,99011.24
2018-08-03T08:54:56.210Z,99010.63
2018-08-03T08:57:25.210Z,99015.51
2018-08-03T08:59:54.249Z,99009.72
2018-08-03T09:02:23.371Z,99009.80
2018-08-03T09:04:52.684Z,99015.34
2018-08-03T09:07:21.840Z,99009.56
2018-08-03T09:09:51.001Z,99002.66
2018-08-03T09:12:19.980Z,99005.11
2018-08-03T09:14:49.189Z,99001.96
2018-08-03T09:17:18.254Z,99003.40
2018-08-03T09:19:47.385Z,98993.44
2018-08-03T09:22:16.537Z,98985.81
2018-08-03T09:24:45.660Z,98985.97
2018-08-03T09:27:14.681Z,98985.97
2018-08-03T09:29:43.724Z,98984.31
2018-08-03T09:32:12.742Z,98978.66
2018-08-03T09:34:41.753Z,98982.08
2018-08-03T09:37:10.738Z,98978.24
2018-08-03T09:39:39.809Z,98979.11
2018-08-03T09:42:08.889Z,98967.57
2018-08-03T09:44:37.919Z,98966.74
2018-08-03T09:47:07.077Z,98959.91
2018-08-03T09:49:36.209Z,98963.16
2018-08-03T09:52:05.286Z,98957.73
2018-08-03T09:54:34.412Z,98960.48
2018-08-03T09:57:03.706Z,98949.66
2018-08-03T09:59:32.722Z,98949.73
2018-08-03T10:02:01.869Z,98948.02
2018-08-03T10:04:30.940Z,98949.58
2018-08-03T10:06:59.943Z,98948.08
2018-08-03T10:09:28.989Z,98954.52
2018-08-03T10:11:58.044Z,98942.95
2018-08-03T10:14:27.146Z,98947.91
2018-08-03T10:16:56.216Z,98941.08
2018-08-03T10:19:25.245Z,98942.95
2018-08-03T10:21:54.231Z,98944.03
2018-08-03T10:24:23.330Z,98940.30
2018-08-03T10:26:52.341Z,98939.09
2018-08-03T10:29:21.396Z,98937.22
2018-08-03T10:31:50.562Z,98938.27
2018-08-03T10:34:19.610Z,98935.38
2018-08-03T10:36:48.674Z,98932.17
2018-08-03T10:39:17.653Z,98935.91
2018-08-03T10:41:46.706Z,98923.94
2018-08-03T10:44:15.779Z,98925.63
2018-08-03T10:46:44.863Z,98916.79
2018-08-03T10:49:13.938Z,98912.19
2018-08-03T10:51:43.257Z,98917.30
2018-08-03T10:54:12.378Z,98915.99
2018-08-03T10:56:41.481Z,98902.75
2018-08-03T10:59:10.522Z,98910.02
2018-08-03T11:01:39.677Z,98906.20
2018-08-03T11:04:08.706Z,98912.27
2018-08-03T11:06:37.886Z,98901.67
2018-08-03T11:09:08.374Z,98906.95
2018-08-03T11:11:37.681Z,98897.78
2018-08-03T11:14:06.882Z,98900.17
2018-08-03T11:16:36.443Z,98896.52
2018-08-03T11:19:05.644Z,98897.84
2018-08-03T11:21:34.694Z,98897.67
2018-08-03T11:24:03.892Z,98887.36
2018-08-03T11:26:33.139Z,98892.55
2018-08-03T11:29:02.334Z,98881.70
2018-08-03T11:31:31.635Z,98882.73
2018-08-03T11:34:00.741Z,98879.17
2018-08-03T11:36:29.997Z,98876.23
2018-08-03T11:38:59.051Z,98877.09
2018-08-03T11:41:30.298Z,98872.19
2018-08-03T11:43:59.403Z,98866.45
2018-08-03T11:46:28.401Z,98866.59
2018-08-03T11:48:57.656Z,98863.63
2018-08-03T11:51:26.850Z,98869.12
2018-08-03T11:53:56.110Z,98861.82
2018-08-03T11:56:25.216Z,98864.23
2018-08-03T11:58:54.253Z,98856.40
2018-08-03T12:01:23.258Z,98852.61
2018-08-03T12:03:52.368Z,98853.57
2018-08-03T12:06:21.603Z,98846.36
2018-08-03T12:08:50.825Z,98837.25
2018-08-03T12:11:19.987Z,98839.03
2018-08-03T12:13:49.150Z,98844.44
2018-08-03T12:16:18.214Z,98835.89
2018-08-03T12:18:47.307Z,98834.17
2018-08-03T12:21:16.434Z,98841.50
2018-08-03T12:23:45.515Z,98840.19
2018-08-03T12:26:14.583Z,98832.72
2018-08-03T12:28:43.554Z,98828.95
2018-08-03T12:31:12.605Z,98829.17
2018-08-03T12:33:41.649Z,98835.28
2018-08-03T12:36:10.810Z,98829.23
2018-08-03T12:38:39.881Z,98820.62
2018-08-03T12:41:08.958Z,98824.51
2018-08-03T12:43:37.963Z,98813.82
2018-08-03T12:46:07.072Z,98813.59
2018-08-03T12:48:36.253Z,98813.43
2018-08-03T12:51:05.494Z,98810.83
2018-08-03T12:53:34.625Z,98808.26
2018-08-03T12:56:03.934Z,98808.27
2018-08-03T12:58:32.905Z,98800.80
2018-08-03T13:01:02.044Z,98810.92
2018-08-03T13:03:31.021Z,98799.39
2018-08-03T13:06:00.125Z,98788.33
2018-08-03T13:08:29.206Z,98789.34
2018-08-03T13:10:58.217Z,98788.65
2018-08-03T13:13:27.375Z,98794.41
2018-08-03T13:15:56.403Z,98782.77
2018-08-03T13:18:25.550Z,98781.71
2018-08-03T13:20:54.599Z,98783.23
2018-08-03T13:23:23.661Z,98779.47
2018-08-03T13:25:52.774Z,98773.59
2018-08-03T13:28:21.900Z,98775.61
2018-08-03T13:30:50.988Z,98774.52
2018-08-03T13:33:20.033Z,98768.03
2018-08-03T13:35:49.066Z,98767.19
2018-08-03T13:38:18.122Z,98755.47
2018-08-03T13:40:47.236Z,98753.78
2018-08-03T13:43:16.483Z,98751.79
2018-08-03T13:45:45.601Z,98753.20
2018-08-03T13:48:14.809Z,98754.45
2018-08-03T13:50:43.905Z,98749.81
2018-08-03T13:53:12.998Z,98743.31
2018-08-03T13:55:42.057Z,98740.70
2018-08-03T13:58:11.104Z,98733.09
2018-08-03T14:00:40.243Z,98734.59
2018-08-03T14:03:09.275Z,98731.52
2018-08-03T14:05:38.375Z,98734.84
2018-08-03T14:08:07.438Z,98728.98
2018-08-03T14:10:36.579Z,98729.22
2018-08-03T14:13:05.744Z,98721.14
2018-08-03T14:15:34.770Z,98719.63
2018-08-03T14:18:03.933Z,98723.25
2018-08-03T14:20:32.985Z,98731.23
2018-08-03T14:23:01.956Z,98729.30
2018-08-03T14:25:31.150Z,98720.95
2018-08-03T14:28:00.616Z,98720.55
2018-08-03T14:30:29.632Z,98711.44
2018-08-03T14:32:58.737Z,98710.38
2018-08-03T14:35:27.849Z,98708.30
2018-08-03T14:37:56.894Z,98704.30
2018-08-03T14:40:26.909Z,98698.00
2018-08-03T14:42:56.101Z,98697.12
2018-08-03T14:45:25.338Z,98702.23
2018-08-03T14:47:54.449Z,98697.27
2018-08-03T14:50:23.678Z,98690.87
2018-08-03T14:52:52.816Z,98690.98
2018-08-03T14:55:21.901Z,98689.00
2018-08-03T14:57:51.039Z,98684.94
2018-08-03T15:00:20.101Z,98682.67
2018-08-03T15:02:49.341Z,98680.73
2018-08-03T15:05:18.475Z,98679.48
2018-08-03T15:07:47.742Z,98679.12
2018-08-03T15:10:16.814Z,98676.53
2018-08-03T15:12:45.978Z,98670.27
2018-08-03T15:15:15.190Z,98662.53
2018-08-03T15:17:44.273Z,98664.97
2018-08-03T15:20:13.384Z,98664.44
2018-08-03T15:22:42.517Z,98657.67
2018-08-03T15:25:11.597Z,98650.97
2018-08-03T15:27:40.651Z,98649.17
2018-08-03T15:30:10.852Z,98649.33
2018-08-03T15:32:39.999Z,98643.27
2018-08-03T15:35:09.129Z,98641.89
2018-08-03T15:37:38.195Z,98637.33
2018-08-03T15:40:08.085Z,98639.24
2018-08-03T15:42:37.206Z,98635.98
2018-08-03T15:45:07.649Z,98634.12
2018-08-03T15:47:36.694Z,98636.16
2018-08-03T15:50:06.125Z,98631.25
2018-08-03T15:52:35.153Z,98635.10
2018-08-03T15:55:04.225Z,98635.89
2018-08-03T15:57:33.273Z,98628.63
2018-08-03T16:00:02.416Z,98623.63
2018-08-03T16:02:31.475Z,98618.83
2018-08-03T16:05:00.597Z,98617.28
2018-08-03T16:07:29.733Z,98615.38
2018-08-03T16:09:58.792Z,98615.08
2018-08-03T16:12:27.833Z,98606.71
2018-08-03T16:14:57.153Z,98605.20
2018-08-03T16:17:26.271Z,98603.97
2018-08-03T16:19:55.394Z,98599.62
2018-08-03T16:22:24.436Z,98600.97
2018-08-03T16:24:53.574Z,98604.09
2018-08-03T16:27:22.627Z,98603.58
2018-08-03T16:29:51.717Z,98604.44
2018-08-03T16:32:20.818Z,98602.12
2018-08-03T16:34:49.917Z,98592.90
2018-08-03T16:37:19.073Z,98593.80
2018-08-03T16:39:48.225Z,98593.86
2018-08-03T16:42:17.359Z,98594.83
2018-08-03T16:44:46.606Z,98588.97
2018-08-03T16:47:15.692Z,98595.66
2018-08-03T16:49:44.818Z,98594.19
2018-08-03T16:52:13.890Z,98595.27
2018-08-03T16:54:42.978Z,98592.31
2018-08-03T16:57:12.050Z,98595.59
2018-08-03T16:59:41.504Z,98591.50
2018-08-03T17:02:10.652Z,98590.53
2018-08-03T17:04:39.972Z,98586.46
2018-08-03T17:07:09.116Z,98585.83
2018-08-03T17:09:38.368Z,98584.46
2018-08-03T17:12:07.417Z,98580.38
2018-08-03T17:14:36.497Z,98581.22
2018-08-03T17:17:05.613Z,98586.80
2018-08-03T17:19:34.635Z,98585.85
2018-08-03T17:22:03.877Z,98581.12
2018-08-03T17:24:32.854Z,98584.44
2018-08-03T17:27:01.948Z,98580.39
2018-08-03T17:29:31.021Z,98581.80
2018-08-03T17:32:00.166Z,98583.08
2018-08-03T17:34:29.212Z,98579.73
2018-08-03T17:36:58.391Z,98577.92
2018-08-03T17:39:27.489Z,98579.31
2018-08-03T17:41:56.705Z,98585.58
2018-08-03T17:44:25.757Z,98590.76
2018-08-03T17:46:54.833Z,98588.08
2018-08-03T17:49:23.871Z,98592.70
2018-08-03T17:51:52.869Z,98585.34
2018-08-03T17:54:22.096Z,98589.46
2018-08-03T17:56:51.162Z,98591.05
2018-08-03T17:59:20.276Z,98594.91
2018-08-03T18:01:49.264Z,98597.41
2018-08-03T18:04:18.366Z,98592.59
2018-08-03T18:06:47.518Z,98594.26
2018-08-03T18:09:16.535Z,98600.08
2018-08-03T18:11:45.537Z,98596.42
2018-08-03T18:14:14.770Z,98596.33
2018-08-03T18:16:43.819Z,98599.53
2018-08-03T18:19:12.957Z,98598.84
2018-08-03T18:21:42.013Z,98598.61
2018-08-03T18:24:11.108Z,98596.57
2018-08-03T18:26:40.820Z,98594.30
2018-08-03T18:29:09.838Z,98598.75
2018-08-03T18:31:38.987Z,98596.41
2018-08-03T18:34:08.108Z,98588.84
2018-08-03T18:36:38.223Z,98593.51
2018-08-03T18:39:10.061Z,98591.81
2018-08-03T18:41:39.348Z,98596.22
2018-08-03T18:44:08.370Z,98599.67
2018-08-03T18:46:37.448Z,98596.93
2018-08-03T18:49:06.464Z,98601.80
2018-08-03T18:51:35.496Z,98597.33
2018-08-03T18:54:04.521Z,98597.01
2018-08-03T18:56:33.685Z,98601.34
2018-08-03T18:59:02.750Z,98603.91
2018-08-03T19:01:31.883Z,98603.31
2018-08-03T19:04:01.203Z,98605.48
2018-08-03T19:06:30.232Z,98608.89
2018-08-03T19:08:59.327Z,98608.30
2018-08-03T19:11:28.591Z,98607.73
2018-08-03T19:13:57.718Z,98612.54
2018-08-03T19:16:26.853Z,98612.98
2018-08-03T19:18:55.922Z,98614.01
2018-08-03T19:21:25.039Z,98616.98
2018-08-03T19:23:54.189Z,98618.84
2018-08-03T19:26:23.305Z,98627.89
2018-08-03T19:28:52.401Z,98629.46
2018-08-03T19:31:21.569Z,98631.20
2018-08-03T19:33:50.698Z,98627.00
2018-08-03T19:36:19.786Z,98633.86
2018-08-03T19:38:48.902Z,98636.80
2018-08-03T19:41:17.913Z,98628.53
2018-08-03T19:43:46.946Z,98637.24
2018-08-03T19:46:16.070Z,98631.91
2018-08-03T19:48:45.166Z,98630.83
2018-08-03T19:51:14.381Z,98629.63
2018-08-03T19:53:43.440Z,98630.06
2018-08-03T19:56:12.617Z,98627.84
2018-08-03T19:58:41.720Z,98634.14
2018-08-03T20:01:10.721Z,98631.71
2018-08-03T20:03:39.837Z,98632.97
2018-08-03T20:06:09.028Z,98636.81
2018-08-03T20:08:38.160Z,98637.93
2018-08-03T20:11:07.214Z,98646.77
2018-08-03T20:13:36.290Z,98642.92
2018-08-03T20:16:05.420Z,98637.78
2018-08-03T20:18:34.484Z,98637.59
2018-08-03T20:21:03.628Z,98639.27
2018-08-03T20:23:33.110Z,98636.86
2018-08-03T20:26:02.321Z,98642.59
2018-08-03T20:28:31.743Z,98643.69
2018-08-03T20:31:00.955Z,98642.06
2018-08-03T20:33:29.988Z,98652.63
2018-08-03T20:35:59.106Z,98651.83
2018-08-03T20:38:28.157Z,98653.47
2018-08-03T20:40:57.301Z,98655.09
2018-08-03T20:43:26.389Z,98648.62
2018-08-03T20:45:55.501Z,98659.73
2018-08-03T20:48:24.541Z,98655.11
2018-08-03T20:50:53.748Z,98651.89
2018-08-03T20:53:22.995Z,98654.93
2018-08-03T20:55:52.025Z,98648.95
2018-08-03T20:58:21.165Z,98658.66
2018-08-03T21:00:50.317Z,98658.15
2018-08-03T21:03:19.427Z,98653.87
2018-08-03T21:05:49.662Z,98652.53
2018-08-03T21:08:18.764Z,98655.25
2018-08-03T21:10:47.766Z,98652.03
2018-08-03T21:13:17.697Z,98655.28
2018-08-03T21:15:46.978Z,98651.79
2018-08-03T21:18:16.046Z,98653.70
2018-08-03T21:20:45.181Z,98659.94
2018-08-03T21:23:14.212Z,98658.84
2018-08-03T21:25:43.370Z,98663.75
2018-08-03T21:28:12.364Z,98667.27
2018-08-03T21:30:41.466Z,98660.83
2018-08-03T21:33:10.522Z,98663.02
2018-08-03T21:35:39.583Z,98666.52
2018-08-03T21:38:08.647Z,98668.70
2018-08-03T21:40:37.701Z,98670.34
2018-08-03T21:43:06.849Z,98662.78
2018-08-03T21:45:36.024Z,98658.74
2018-08-03T21:48:05.240Z,98659.81
2018-08-03T21:50:34.296Z,98658.50
2018-08-03T21:53:03.424Z,98660.13
2018-08-03T21:55:32.484Z,98658.50
2018-08-03T21:58:01.571Z,98660.94
2018-08-03T22:00:30.632Z,98656.62
2018-08-03T22:02:59.954Z,98655.25
2018-08-03T22:05:30.156Z,98656.59
2018-08-03T22:07:59.313Z,98667.38
2018-08-03T22:10:28.436Z,98653.33
2018-08-03T22:12:57.497Z,98651.44
2018-08-03T22:15:26.756Z,98658.16
2018-08-03T22:17:55.994Z,98665.17
2018-08-03T22:20:25.064Z,98661.36
2018-08-03T22:22:54.245Z,98660.83
2018-08-03T22:25:23.298Z,98659.45
2018-08-03T22:27:52.372Z,98660.78
2018-08-03T22:30:21.453Z,98656.81
2018-08-03T22:32:50.620Z,98663.78
2018-08-03T22:35:19.765Z,98663.22
2018-08-03T22:37:49.612Z,98662.06
2018-08-03T22:40:19.037Z,98665.53
2018-08-03T22:42:48.546Z,98667.09
2018-08-03T22:45:17.596Z,98655.50
2018-08-03T22:47:47.388Z,98661.95
2018-08-03T22:50:16.701Z,98660.84
2018-08-03T22:52:45.924Z,98656.55
2018-08-03T22:55:14.975Z,98656.27
2018-08-03T22:57:44.037Z,98652.80
2018-08-03T23:00:13.268Z,98649.74
2018-08-03T23:02:42.285Z,98648.62
2018-08-03T23:05:11.433Z,98644.23
2018-08-03T23:07:40.573Z,98638.20
2018-08-03T23:10:09.680Z,98641.55
2018-08-03T23:12:38.884Z,98636.02
2018-08-03T23:15:08.473Z,98634.16
2018-08-03T23:17:37.930Z,98631.94
2018-08-03T23:20:07.412Z,98629.81
2018-08-03T23:22:36.553Z,98638.95
2018-08-03T23:25:05.593Z,98627.06
2018-08-03T23:27:34.657Z,98628.64
2018-08-03T23:30:03.875Z,98622.73
2018-08-03T23:32:32.865Z,98617.58
2018-08-03T23:35:01.933Z,98625.50
2018-08-03T23:37:30.955Z,98626.32
2018-08-03T23:40:00.023Z,98623.39
2018-08-03T23:42:29.071Z,98620.52
2018-08-03T23:44:58.120Z,98620.52
2018-08-03T23:47:27.231Z,98614.50
2018-08-03T23:49:56.197Z,98622.81
2018-08-03T23:52:25.393Z,98619.88
2018-08-03T23:54:54.577Z,98620.17
2018-08-03T23:57:23.690Z,98618.28
2018-08-03T23:59:52.746Z,98611.85
